sensor_id;sensor_type;location;lat;lon;timestamp;temperature;humidity
12025;DHT22;6073;53.230;10.444;2022-12-11T00:02:22;-1.10;99.90
12025;DHT22;6073;53.230;10.444;2022-12-11T00:04:48;-1.20;99.90
12025;DHT22;6073;53.230;10.444;2022-12-11T00:07:13;-1.20;99.90
12025;DHT22;6073;53.230;10.444;2022-12-11T00:09:45;-1.20;99.90
12025;DHT22;6073;53.230;10.444;2022-12-11T00:12:10;-1.10;99.90
12025;DHT22;6073;53.230;10.444;2022-12-11T00:14:36;-1.20;99.90
12025;DHT22;6073;53.230;10.444;2022-12-11T00:17:02;-1.20;99.90
12025;DHT22;6073;53.230;10.444;2022-12-11T00:19:30;-1.20;99.90
12025;DHT22;6073;53.230;10.444;2022-12-11T00:21:56;-1.20;99.90
12025;DHT22;6073;53.230;10.444;2022-12-11T00:24:24;-1.20;99.90
12025;DHT22;6073;53.230;10.444;2022-12-11T00:26:53;-1.20;99.90
12025;DHT22;6073;53.230;10.444;2022-12-11T00:29:18;-1.20;99.90
12025;DHT22;6073;53.230;10.444;2022-12-11T00:31:44;-1.30;99.90
12025;DHT22;6073;53.230;10.444;2022-12-11T00:34:10;-1.30;99.90
12025;DHT22;6073;53.230;10.444;2022-12-11T00:36:37;-1.40;99.90
12025;DHT22;6073;53.230;10.444;2022-12-11T00:39:03;-1.40;99.90
12025;DHT22;6073;53.230;10.444;2022-12-11T00:41:31;-1.40;99.90
12025;DHT22;6073;53.230;10.444;2022-12-11T00:43:57;-1.40;99.90
12025;DHT22;6073;53.230;10.444;2022-12-11T00:46:23;-1.30;99.90
12025;DHT22;6073;53.230;10.444;2022-12-11T00:48:48;-1.30;99.90
12025;DHT22;6073;53.230;10.444;2022-12-11T00:51:16;-1.30;99.90
12025;DHT22;6073;53.230;10.444;2022-12-11T00:53:41;-1.30;99.90
12025;DHT22;6073;53.230;10.444;2022-12-11T00:56:17;-1.30;99.90
12025;DHT22;6073;53.230;10.444;2022-12-11T00:58:47;-1.30;99.90
12025;DHT22;6073;53.230;10.444;2022-12-11T01:01:18;-1.40;99.90
12025;DHT22;6073;53.230;10.444;2022-12-11T01:03:45;-1.30;99.90
12025;DHT22;6073;53.230;10.444;2022-12-11T01:06:16;-1.30;99.90
12025;DHT22;6073;53.230;10.444;2022-12-11T01:08:45;-1.30;99.90
12025;DHT22;6073;53.230;10.444;2022-12-11T01:11:13;-1.30;99.90
12025;DHT22;6073;53.230;10.444;2022-12-11T01:13:42;-1.30;99.90
12025;DHT22;6073;53.230;10.444;2022-12-11T01:16:14;-1.30;99.90
12025;DHT22;6073;53.230;10.444;2022-12-11T01:18:40;-1.20;99.90
12025;DHT22;6073;53.230;10.444;2022-12-11T01:21:11;-1.30;99.90
12025;DHT22;6073;53.230;10.444;2022-12-11T01:23:37;-1.30;99.90
12025;DHT22;6073;53.230;10.444;2022-12-11T01:26:12;-1.30;99.90
12025;DHT22;6073;53.230;10.444;2022-12-11T01:28:38;-1.30;99.90
12025;DHT22;6073;53.230;10.444;2022-12-11T01:31:09;-1.30;99.90
12025;DHT22;6073;53.230;10.444;2022-12-11T01:33:35;-1.30;99.90
12025;DHT22;6073;53.230;10.444;2022-12-11T01:36:05;-1.30;99.90
12025;DHT22;6073;53.230;10.444;2022-12-11T01:38:30;-1.20;99.90
12025;DHT22;6073;53.230;10.444;2022-12-11T01:40:56;-1.20;99.90
12025;DHT22;6073;53.230;10.444;2022-12-11T01:43:21;-1.20;99.90
12025;DHT22;6073;53.230;10.444;2022-12-11T01:45:47;-1.20;99.90
12025;DHT22;6073;53.230;10.444;2022-12-11T01:48:24;-1.30;99.90
12025;DHT22;6073;53.230;10.444;2022-12-11T01:51:00;-1.30;99.90
12025;DHT22;6073;53.230;10.444;2022-12-11T01:53:33;-1.30;99.90
12025;DHT22;6073;53.230;10.444;2022-12-11T01:55:59;-1.30;99.90
12025;DHT22;6073;53.230;10.444;2022-12-11T01:58:33;-1.30;99.90
12025;DHT22;6073;53.230;10.444;2022-12-11T02:00:59;-1.30;99.90
12025;DHT22;6073;53.230;10.444;2022-12-11T02:03:26;-1.30;99.90
12025;DHT22;6073;53.230;10.444;2022-12-11T02:05:51;-1.40;99.90
12025;DHT22;6073;53.230;10.444;2022-12-11T02:08:17;-1.30;99.90
12025;DHT22;6073;53.230;10.444;2022-12-11T02:11:03;-1.40;99.90
12025;DHT22;6073;53.230;10.444;2022-12-11T02:16:09;-1.30;99.90
12025;DHT22;6073;53.230;10.444;2022-12-11T02:18:47;-1.30;99.90
12025;DHT22;6073;53.230;10.444;2022-12-11T02:21:18;-1.40;99.90
12025;DHT22;6073;53.230;10.444;2022-12-11T02:24:12;-1.40;99.90
12025;DHT22;6073;53.230;10.444;2022-12-11T02:29:25;-1.40;99.90
12025;DHT22;6073;53.230;10.444;2022-12-11T02:32:07;-1.40;99.90
12025;DHT22;6073;53.230;10.444;2022-12-11T02:34:49;-1.40;99.90
12025;DHT22;6073;53.230;10.444;2022-12-11T02:37:21;-1.40;99.90
12025;DHT22;6073;53.230;10.444;2022-12-11T02:39:49;-1.30;99.90
12025;DHT22;6073;53.230;10.444;2022-12-11T02:42:17;-1.40;99.90
12025;DHT22;6073;53.230;10.444;2022-12-11T02:44:45;-1.40;99.90
12025;DHT22;6073;53.230;10.444;2022-12-11T02:47:15;-1.40;99.90
12025;DHT22;6073;53.230;10.444;2022-12-11T02:49:44;-1.40;99.90
12025;DHT22;6073;53.230;10.444;2022-12-11T02:52:13;-1.40;99.90
12025;DHT22;6073;53.230;10.444;2022-12-11T02:54:42;-1.40;99.90
12025;DHT22;6073;53.230;10.444;2022-12-11T02:57:17;-1.40;99.90
12025;DHT22;6073;53.230;10.444;2022-12-11T02:59:45;-1.50;99.90
12025;DHT22;6073;53.230;10.444;2022-12-11T03:02:14;-1.50;99.90
12025;DHT22;6073;53.230;10.444;2022-12-11T03:04:41;-1.50;99.90
12025;DHT22;6073;53.230;10.444;2022-12-11T03:07:12;-1.40;99.90
12025;DHT22;6073;53.230;10.444;2022-12-11T03:09:41;-1.40;99.90
12025;DHT22;6073;53.230;10.444;2022-12-11T03:12:09;-1.40;99.90
12025;DHT22;6073;53.230;10.444;2022-12-11T03:14:37;-1.40;99.90
12025;DHT22;6073;53.230;10.444;2022-12-11T03:17:16;-1.30;99.90
12025;DHT22;6073;53.230;10.444;2022-12-11T03:22:20;-1.40;99.90
12025;DHT22;6073;53.230;10.444;2022-12-11T03:25:00;-1.40;99.90
12025;DHT22;6073;53.230;10.444;2022-12-11T03:27:33;-1.40;99.90
12025;DHT22;6073;53.230;10.444;2022-12-11T03:30:09;-1.40;99.90
12025;DHT22;6073;53.230;10.444;2022-12-11T03:35:28;-1.40;99.90
12025;DHT22;6073;53.230;10.444;2022-12-11T03:37:57;-1.40;99.90
12025;DHT22;6073;53.230;10.444;2022-12-11T03:40:25;-1.40;99.90
12025;DHT22;6073;53.230;10.444;2022-12-11T03:42:52;-1.40;99.90
12025;DHT22;6073;53.230;10.444;2022-12-11T03:45:21;-1.40;99.90
12025;DHT22;6073;53.230;10.444;2022-12-11T03:47:49;-1.40;99.90
12025;DHT22;6073;53.230;10.444;2022-12-11T03:50:17;-1.40;99.90
12025;DHT22;6073;53.230;10.444;2022-12-11T03:52:45;-1.40;99.90
12025;DHT22;6073;53.230;10.444;2022-12-11T03:55:16;-1.50;99.90
12025;DHT22;6073;53.230;10.444;2022-12-11T03:57:42;-1.50;99.90
12025;DHT22;6073;53.230;10.444;2022-12-11T04:00:16;-1.50;99.90
12025;DHT22;6073;53.230;10.444;2022-12-11T04:02:42;-1.50;99.90
12025;DHT22;6073;53.230;10.444;2022-12-11T04:05:10;-1.50;99.90
12025;DHT22;6073;53.230;10.444;2022-12-11T04:07:35;-1.50;99.90
12025;DHT22;6073;53.230;10.444;2022-12-11T04:10:02;-1.50;99.90
12025;DHT22;6073;53.230;10.444;2022-12-11T04:12:28;-1.50;99.90
12025;DHT22;6073;53.230;10.444;2022-12-11T04:14:54;-1.50;99.90
12025;DHT22;6073;53.230;10.444;2022-12-11T04:17:33;-1.50;99.90
12025;DHT22;6073;53.230;10.444;2022-12-11T04:20:27;-1.50;99.90
12025;DHT22;6073;53.230;10.444;2022-12-11T04:23:21;-1.50;99.90
12025;DHT22;6073;53.230;10.444;2022-12-11T04:26:11;-1.50;99.90
12025;DHT22;6073;53.230;10.444;2022-12-11T04:28:37;-1.50;99.90
12025;DHT22;6073;53.230;10.444;2022-12-11T04:31:06;-1.50;99.90
12025;DHT22;6073;53.230;10.444;2022-12-11T04:33:35;-1.60;99.90
12025;DHT22;6073;53.230;10.444;2022-12-11T04:36:03;-1.60;99.90
12025;DHT22;6073;53.230;10.444;2022-12-11T04:38:29;-1.60;99.90
12025;DHT22;6073;53.230;10.444;2022-12-11T04:40:59;-1.60;99.90
12025;DHT22;6073;53.230;10.444;2022-12-11T04:43:28;-1.60;99.90
12025;DHT22;6073;53.230;10.444;2022-12-11T04:46:10;-1.50;99.90
12025;DHT22;6073;53.230;10.444;2022-12-11T04:48:37;-1.60;99.90
12025;DHT22;6073;53.230;10.444;2022-12-11T04:51:03;-1.60;99.90
12025;DHT22;6073;53.230;10.444;2022-12-11T04:53:29;-1.70;99.90
12025;DHT22;6073;53.230;10.444;2022-12-11T04:55:55;-1.60;99.90
12025;DHT22;6073;53.230;10.444;2022-12-11T04:58:21;-1.60;99.90
12025;DHT22;6073;53.230;10.444;2022-12-11T05:00:47;-1.70;99.90
12025;DHT22;6073;53.230;10.444;2022-12-11T05:03:16;-1.80;99.90
12025;DHT22;6073;53.230;10.444;2022-12-11T05:05:52;-2.00;99.90
12025;DHT22;6073;53.230;10.444;2022-12-11T05:08:18;-2.10;99.90
12025;DHT22;6073;53.230;10.444;2022-12-11T05:10:44;-2.40;99.90
12025;DHT22;6073;53.230;10.444;2022-12-11T05:13:10;-2.50;99.90
12025;DHT22;6073;53.230;10.444;2022-12-11T05:15:38;-2.70;99.90
12025;DHT22;6073;53.230;10.444;2022-12-11T05:18:04;-2.80;99.90
12025;DHT22;6073;53.230;10.444;2022-12-11T05:20:29;-2.80;99.90
12025;DHT22;6073;53.230;10.444;2022-12-11T05:22:55;-2.90;99.90
12025;DHT22;6073;53.230;10.444;2022-12-11T05:25:23;-3.00;99.90
12025;DHT22;6073;53.230;10.444;2022-12-11T05:27:48;-3.00;99.90
12025;DHT22;6073;53.230;10.444;2022-12-11T05:30:17;-3.10;99.90
12025;DHT22;6073;53.230;10.444;2022-12-11T05:32:42;-3.20;99.90
12025;DHT22;6073;53.230;10.444;2022-12-11T05:35:08;-3.20;99.90
12025;DHT22;6073;53.230;10.444;2022-12-11T05:37:34;-3.20;99.90
12025;DHT22;6073;53.230;10.444;2022-12-11T05:39:59;-3.30;99.90
12025;DHT22;6073;53.230;10.444;2022-12-11T05:42:25;-3.30;99.90
12025;DHT22;6073;53.230;10.444;2022-12-11T05:44:50;-3.40;99.90
12025;DHT22;6073;53.230;10.444;2022-12-11T05:47:16;-3.40;99.90
12025;DHT22;6073;53.230;10.444;2022-12-11T05:49:47;-3.50;99.90
12025;DHT22;6073;53.230;10.444;2022-12-11T05:52:16;-3.50;99.90
12025;DHT22;6073;53.230;10.444;2022-12-11T05:54:53;-3.60;99.90
12025;DHT22;6073;53.230;10.444;2022-12-11T05:57:21;-3.80;99.90
12025;DHT22;6073;53.230;10.444;2022-12-11T05:59:47;-3.80;99.90
12025;DHT22;6073;53.230;10.444;2022-12-11T06:02:12;-3.90;99.90
12025;DHT22;6073;53.230;10.444;2022-12-11T06:04:38;-3.90;99.90
12025;DHT22;6073;53.230;10.444;2022-12-11T06:07:03;-4.00;99.90
12025;DHT22;6073;53.230;10.444;2022-12-11T06:09:29;-4.00;99.90
12025;DHT22;6073;53.230;10.444;2022-12-11T06:11:54;-4.10;99.90
12025;DHT22;6073;53.230;10.444;2022-12-11T06:14:20;-4.20;99.90
12025;DHT22;6073;53.230;10.444;2022-12-11T06:16:45;-4.10;99.90
12025;DHT22;6073;53.230;10.444;2022-12-11T06:19:14;-4.20;99.90
12025;DHT22;6073;53.230;10.444;2022-12-11T06:21:42;-4.10;99.90
12025;DHT22;6073;53.230;10.444;2022-12-11T06:24:12;-4.20;99.90
12025;DHT22;6073;53.230;10.444;2022-12-11T06:26:38;-4.20;99.90
12025;DHT22;6073;53.230;10.444;2022-12-11T06:29:03;-4.30;99.90
12025;DHT22;6073;53.230;10.444;2022-12-11T06:31:29;-4.30;99.90
12025;DHT22;6073;53.230;10.444;2022-12-11T06:33:54;-4.40;99.90
12025;DHT22;6073;53.230;10.444;2022-12-11T06:36:22;-4.50;99.90
12025;DHT22;6073;53.230;10.444;2022-12-11T06:38:48;-4.40;99.90
12025;DHT22;6073;53.230;10.444;2022-12-11T06:41:14;-4.40;99.90
12025;DHT22;6073;53.230;10.444;2022-12-11T06:43:40;-4.40;99.90
12025;DHT22;6073;53.230;10.444;2022-12-11T06:46:12;-4.40;99.90
12025;DHT22;6073;53.230;10.444;2022-12-11T06:48:41;-4.40;99.90
12025;DHT22;6073;53.230;10.444;2022-12-11T06:51:09;-4.40;99.90
12025;DHT22;6073;53.230;10.444;2022-12-11T06:53:40;-4.40;99.90
12025;DHT22;6073;53.230;10.444;2022-12-11T06:56:11;-4.50;99.90
12025;DHT22;6073;53.230;10.444;2022-12-11T06:58:38;-4.60;99.90
12025;DHT22;6073;53.230;10.444;2022-12-11T07:01:11;-4.60;99.90
12025;DHT22;6073;53.230;10.444;2022-12-11T07:03:43;-4.50;99.90
12025;DHT22;6073;53.230;10.444;2022-12-11T07:06:15;-4.60;99.90
12025;DHT22;6073;53.230;10.444;2022-12-11T07:08:43;-4.60;99.90
12025;DHT22;6073;53.230;10.444;2022-12-11T07:11:11;-4.60;99.90
12025;DHT22;6073;53.230;10.444;2022-12-11T07:13:40;-4.70;99.90
12025;DHT22;6073;53.230;10.444;2022-12-11T07:16:11;-4.70;99.90
12025;DHT22;6073;53.230;10.444;2022-12-11T07:18:45;-4.70;99.90
12025;DHT22;6073;53.230;10.444;2022-12-11T07:21:12;-4.70;99.90
12025;DHT22;6073;53.230;10.444;2022-12-11T07:23:38;-4.70;99.90
12025;DHT22;6073;53.230;10.444;2022-12-11T07:26:09;-4.60;99.90
12025;DHT22;6073;53.230;10.444;2022-12-11T07:28:35;-4.60;99.90
12025;DHT22;6073;53.230;10.444;2022-12-11T07:31:09;-4.70;99.90
12025;DHT22;6073;53.230;10.444;2022-12-11T07:33:39;-4.80;99.90
12025;DHT22;6073;53.230;10.444;2022-12-11T07:36:08;-4.70;99.90
12025;DHT22;6073;53.230;10.444;2022-12-11T07:38:35;-4.70;99.90
12025;DHT22;6073;53.230;10.444;2022-12-11T07:41:05;-4.80;99.90
12025;DHT22;6073;53.230;10.444;2022-12-11T07:43:32;-4.80;99.90
12025;DHT22;6073;53.230;10.444;2022-12-11T07:46:09;-4.80;99.90
12025;DHT22;6073;53.230;10.444;2022-12-11T07:48:38;-4.80;99.90
12025;DHT22;6073;53.230;10.444;2022-12-11T07:51:15;-4.70;99.90
12025;DHT22;6073;53.230;10.444;2022-12-11T07:53:54;-4.70;99.90
12025;DHT22;6073;53.230;10.444;2022-12-11T07:56:23;-4.70;99.90
12025;DHT22;6073;53.230;10.444;2022-12-11T07:58:52;-4.60;99.90
12025;DHT22;6073;53.230;10.444;2022-12-11T08:01:20;-4.60;99.90
12025;DHT22;6073;53.230;10.444;2022-12-11T08:03:46;-4.60;99.90
12025;DHT22;6073;53.230;10.444;2022-12-11T08:06:19;-4.60;99.90
12025;DHT22;6073;53.230;10.444;2022-12-11T08:08:46;-4.60;99.90
12025;DHT22;6073;53.230;10.444;2022-12-11T08:11:15;-4.50;99.90
12025;DHT22;6073;53.230;10.444;2022-12-11T08:13:41;-4.50;99.90
12025;DHT22;6073;53.230;10.444;2022-12-11T08:16:17;-4.50;99.90
12025;DHT22;6073;53.230;10.444;2022-12-11T08:18:46;-4.40;99.90
12025;DHT22;6073;53.230;10.444;2022-12-11T08:21:18;-4.30;99.90
12025;DHT22;6073;53.230;10.444;2022-12-11T08:23:47;-4.30;99.90
12025;DHT22;6073;53.230;10.444;2022-12-11T08:26:20;-4.20;99.90
12025;DHT22;6073;53.230;10.444;2022-12-11T08:28:49;-4.10;99.90
12025;DHT22;6073;53.230;10.444;2022-12-11T08:31:18;-4.10;99.90
12025;DHT22;6073;53.230;10.444;2022-12-11T08:33:48;-4.00;99.90
12025;DHT22;6073;53.230;10.444;2022-12-11T08:36:17;-3.90;99.90
12025;DHT22;6073;53.230;10.444;2022-12-11T08:38:45;-3.70;99.90
12025;DHT22;6073;53.230;10.444;2022-12-11T08:41:33;-3.40;99.90
12025;DHT22;6073;53.230;10.444;2022-12-11T08:44:01;-3.00;99.90
12025;DHT22;6073;53.230;10.444;2022-12-11T08:46:31;-2.80;99.90
12025;DHT22;6073;53.230;10.444;2022-12-11T08:48:59;-2.60;99.90
12025;DHT22;6073;53.230;10.444;2022-12-11T08:51:27;-2.50;99.90
12025;DHT22;6073;53.230;10.444;2022-12-11T08:53:57;-2.50;99.90
12025;DHT22;6073;53.230;10.444;2022-12-11T08:56:26;-2.40;99.90
12025;DHT22;6073;53.230;10.444;2022-12-11T08:58:57;-2.40;99.90
12025;DHT22;6073;53.230;10.444;2022-12-11T09:01:29;-2.10;99.90
12025;DHT22;6073;53.230;10.444;2022-12-11T09:04:00;-1.80;99.90
12025;DHT22;6073;53.230;10.444;2022-12-11T09:06:27;-1.50;99.90
12025;DHT22;6073;53.230;10.444;2022-12-11T09:08:54;-1.10;99.90
12025;DHT22;6073;53.230;10.444;2022-12-11T09:11:26;-0.60;99.90
12025;DHT22;6073;53.230;10.444;2022-12-11T09:13:56;-0.20;99.90
12025;DHT22;6073;53.230;10.444;2022-12-11T09:16:26;0.10;99.90
12025;DHT22;6073;53.230;10.444;2022-12-11T09:18:53;0.20;99.90
12025;DHT22;6073;53.230;10.444;2022-12-11T09:21:22;0.00;99.90
12025;DHT22;6073;53.230;10.444;2022-12-11T09:23:48;0.00;99.90
12025;DHT22;6073;53.230;10.444;2022-12-11T09:26:17;-0.20;99.90
12025;DHT22;6073;53.230;10.444;2022-12-11T09:28:42;-0.60;99.90
12025;DHT22;6073;53.230;10.444;2022-12-11T09:31:10;-0.90;99.90
12025;DHT22;6073;53.230;10.444;2022-12-11T09:33:36;-1.00;99.90
12025;DHT22;6073;53.230;10.444;2022-12-11T09:36:03;-1.20;99.90
12025;DHT22;6073;53.230;10.444;2022-12-11T09:38:29;-1.20;99.90
12025;DHT22;6073;53.230;10.444;2022-12-11T09:40:59;-1.20;99.90
12025;DHT22;6073;53.230;10.444;2022-12-11T09:43:41;-1.10;99.90
12025;DHT22;6073;53.230;10.444;2022-12-11T09:46:15;-1.10;99.90
12025;DHT22;6073;53.230;10.444;2022-12-11T09:48:44;-1.00;99.90
12025;DHT22;6073;53.230;10.444;2022-12-11T09:51:35;-1.10;99.90
12025;DHT22;6073;53.230;10.444;2022-12-11T09:54:11;-1.00;99.90
12025;DHT22;6073;53.230;10.444;2022-12-11T09:56:54;-1.00;99.90
12025;DHT22;6073;53.230;10.444;2022-12-11T10:16:34;-1.20;99.90
12025;DHT22;6073;53.230;10.444;2022-12-11T10:19:00;-1.10;99.90
12025;DHT22;6073;53.230;10.444;2022-12-11T10:21:31;-1.00;99.90
12025;DHT22;6073;53.230;10.444;2022-12-11T10:24:01;-1.00;99.90
12025;DHT22;6073;53.230;10.444;2022-12-11T10:26:38;-1.00;99.90
12025;DHT22;6073;53.230;10.444;2022-12-11T10:29:08;-0.90;99.90
12025;DHT22;6073;53.230;10.444;2022-12-11T10:31:53;-1.00;99.90
12025;DHT22;6073;53.230;10.444;2022-12-11T10:34:36;-1.10;99.90
12025;DHT22;6073;53.230;10.444;2022-12-11T10:37:03;-1.00;99.90
12025;DHT22;6073;53.230;10.444;2022-12-11T10:39:32;-0.80;99.90
12025;DHT22;6073;53.230;10.444;2022-12-11T10:41:57;-0.90;99.90
12025;DHT22;6073;53.230;10.444;2022-12-11T10:44:28;-0.90;99.90
12025;DHT22;6073;53.230;10.444;2022-12-11T10:47:23;-0.90;99.90
12025;DHT22;6073;53.230;10.444;2022-12-11T10:49:53;-0.80;99.90
12025;DHT22;6073;53.230;10.444;2022-12-11T10:52:34;-0.90;99.90
12025;DHT22;6073;53.230;10.444;2022-12-11T10:55:21;-0.80;99.90
12025;DHT22;6073;53.230;10.444;2022-12-11T10:58:15;-0.80;99.90
12025;DHT22;6073;53.230;10.444;2022-12-11T11:00:42;-0.80;99.90
12025;DHT22;6073;53.230;10.444;2022-12-11T11:03:22;-0.80;99.90
12025;DHT22;6073;53.230;10.444;2022-12-11T11:06:43;-0.70;99.90
12025;DHT22;6073;53.230;10.444;2022-12-11T11:08:53;-0.70;99.90
12025;DHT22;6073;53.230;10.444;2022-12-11T11:11:28;-0.60;99.90
12025;DHT22;6073;53.230;10.444;2022-12-11T11:16:37;-0.70;99.90
12025;DHT22;6073;53.230;10.444;2022-12-11T11:19:13;-0.60;99.90
12025;DHT22;6073;53.230;10.444;2022-12-11T11:21:49;-0.60;99.90
12025;DHT22;6073;53.230;10.444;2022-12-11T11:26:57;-0.80;99.90
12025;DHT22;6073;53.230;10.444;2022-12-11T11:29:31;-0.80;99.90
12025;DHT22;6073;53.230;10.444;2022-12-11T11:32:16;-0.80;99.90
12025;DHT22;6073;53.230;10.444;2022-12-11T11:34:43;-0.80;99.90
12025;DHT22;6073;53.230;10.444;2022-12-11T11:37:23;-0.70;99.90
12025;DHT22;6073;53.230;10.444;2022-12-11T11:39:52;-0.70;99.90
12025;DHT22;6073;53.230;10.444;2022-12-11T11:42:56;-0.80;99.90
12025;DHT22;6073;53.230;10.444;2022-12-11T11:45:27;-0.80;99.90
12025;DHT22;6073;53.230;10.444;2022-12-11T11:50:51;-0.70;99.90
12025;DHT22;6073;53.230;10.444;2022-12-11T11:53:43;-0.80;99.90
12025;DHT22;6073;53.230;10.444;2022-12-11T11:56:24;-0.70;99.90
12025;DHT22;6073;53.230;10.444;2022-12-11T12:01:24;-0.70;99.90
12025;DHT22;6073;53.230;10.444;2022-12-11T12:03:50;-0.70;99.90
12025;DHT22;6073;53.230;10.444;2022-12-11T12:12:14;-0.70;99.90
12025;DHT22;6073;53.230;10.444;2022-12-11T12:17:52;-0.70;99.90
12025;DHT22;6073;53.230;10.444;2022-12-11T12:25:56;-0.20;99.90
12025;DHT22;6073;53.230;10.444;2022-12-11T12:31:28;-0.10;99.90
12025;DHT22;6073;53.230;10.444;2022-12-11T12:34:20;0.00;99.90
12025;DHT22;6073;53.230;10.444;2022-12-11T12:36:58;0.00;99.90
12025;DHT22;6073;53.230;10.444;2022-12-11T12:44:53;0.10;99.90
12025;DHT22;6073;53.230;10.444;2022-12-11T12:47:22;0.10;99.90
12025;DHT22;6073;53.230;10.444;2022-12-11T12:49:50;0.20;99.90
12025;DHT22;6073;53.230;10.444;2022-12-11T12:52:21;0.20;99.90
12025;DHT22;6073;53.230;10.444;2022-12-11T12:54:51;0.10;99.90
12025;DHT22;6073;53.230;10.444;2022-12-11T12:57:37;0.10;99.90
12025;DHT22;6073;53.230;10.444;2022-12-11T13:00:05;0.10;99.90
12025;DHT22;6073;53.230;10.444;2022-12-11T13:02:33;0.10;99.90
12025;DHT22;6073;53.230;10.444;2022-12-11T13:05:18;0.20;99.90
12025;DHT22;6073;53.230;10.444;2022-12-11T13:07:49;0.00;99.90
12025;DHT22;6073;53.230;10.444;2022-12-11T13:10:45;-0.10;99.90
12025;DHT22;6073;53.230;10.444;2022-12-11T13:13:32;0.00;99.90
12025;DHT22;6073;53.230;10.444;2022-12-11T13:16:25;-0.10;99.90
12025;DHT22;6073;53.230;10.444;2022-12-11T13:18:51;-0.10;99.90
12025;DHT22;6073;53.230;10.444;2022-12-11T13:21:37;0.00;99.90
12025;DHT22;6073;53.230;10.444;2022-12-11T13:26:44;-0.30;99.90
12025;DHT22;6073;53.230;10.444;2022-12-11T13:29:39;-0.30;99.90
12025;DHT22;6073;53.230;10.444;2022-12-11T13:34:37;-0.30;99.90
12025;DHT22;6073;53.230;10.444;2022-12-11T13:37:04;-0.30;99.90
12025;DHT22;6073;53.230;10.444;2022-12-11T13:39:32;-0.30;99.90
12025;DHT22;6073;53.230;10.444;2022-12-11T13:42:05;-0.40;99.90
12025;DHT22;6073;53.230;10.444;2022-12-11T13:44:37;-0.40;99.90
12025;DHT22;6073;53.230;10.444;2022-12-11T13:47:05;-0.40;99.90
12025;DHT22;6073;53.230;10.444;2022-12-11T13:49:37;-0.40;99.90
12025;DHT22;6073;53.230;10.444;2022-12-11T13:52:04;-0.40;99.90
12025;DHT22;6073;53.230;10.444;2022-12-11T13:54:33;-0.40;99.90
12025;DHT22;6073;53.230;10.444;2022-12-11T13:57:22;-0.40;99.90
12025;DHT22;6073;53.230;10.444;2022-12-11T13:59:52;-0.40;99.90
12025;DHT22;6073;53.230;10.444;2022-12-11T14:02:23;-0.30;99.90
12025;DHT22;6073;53.230;10.444;2022-12-11T14:04:57;-0.30;99.90
12025;DHT22;6073;53.230;10.444;2022-12-11T14:07:40;-0.30;99.90
12025;DHT22;6073;53.230;10.444;2022-12-11T14:10:08;-0.30;99.90
12025;DHT22;6073;53.230;10.444;2022-12-11T14:12:51;-0.20;99.90
12025;DHT22;6073;53.230;10.444;2022-12-11T14:15:18;-0.20;99.90
12025;DHT22;6073;53.230;10.444;2022-12-11T14:17:50;-0.30;99.90
12025;DHT22;6073;53.230;10.444;2022-12-11T14:20:22;-0.30;99.90
12025;DHT22;6073;53.230;10.444;2022-12-11T14:22:48;-0.30;99.90
12025;DHT22;6073;53.230;10.444;2022-12-11T14:25:21;-0.40;99.90
12025;DHT22;6073;53.230;10.444;2022-12-11T14:27:54;-0.40;99.90
12025;DHT22;6073;53.230;10.444;2022-12-11T14:30:30;-0.40;99.90
12025;DHT22;6073;53.230;10.444;2022-12-11T14:33:00;-0.40;99.90
12025;DHT22;6073;53.230;10.444;2022-12-11T14:35:31;-0.40;99.90
12025;DHT22;6073;53.230;10.444;2022-12-11T14:38:01;-0.50;99.90
12025;DHT22;6073;53.230;10.444;2022-12-11T14:40:31;-0.50;99.90
12025;DHT22;6073;53.230;10.444;2022-12-11T14:43:08;-0.40;99.90
12025;DHT22;6073;53.230;10.444;2022-12-11T14:45:40;-0.50;99.90
12025;DHT22;6073;53.230;10.444;2022-12-11T14:48:14;-0.50;99.90
12025;DHT22;6073;53.230;10.444;2022-12-11T14:50:47;-0.50;99.90
12025;DHT22;6073;53.230;10.444;2022-12-11T14:53:47;-0.50;99.90
12025;DHT22;6073;53.230;10.444;2022-12-11T14:56:20;-0.60;99.90
12025;DHT22;6073;53.230;10.444;2022-12-11T14:58:56;-0.60;99.90
12025;DHT22;6073;53.230;10.444;2022-12-11T15:01:27;-0.60;99.90
12025;DHT22;6073;53.230;10.444;2022-12-11T15:06:43;-0.60;99.90
12025;DHT22;6073;53.230;10.444;2022-12-11T15:09:35;-0.60;99.90
12025;DHT22;6073;53.230;10.444;2022-12-11T15:12:27;-0.60;99.90
12025;DHT22;6073;53.230;10.444;2022-12-11T15:15:01;-0.60;99.90
12025;DHT22;6073;53.230;10.444;2022-12-11T15:17:28;-0.60;99.90
12025;DHT22;6073;53.230;10.444;2022-12-11T15:20:21;-0.70;99.90
12025;DHT22;6073;53.230;10.444;2022-12-11T15:22:48;-0.70;99.90
12025;DHT22;6073;53.230;10.444;2022-12-11T15:25:22;-0.70;99.90
12025;DHT22;6073;53.230;10.444;2022-12-11T15:27:56;-0.70;99.90
12025;DHT22;6073;53.230;10.444;2022-12-11T15:35:36;-0.80;99.90
12025;DHT22;6073;53.230;10.444;2022-12-11T15:38:02;-0.80;99.90
12025;DHT22;6073;53.230;10.444;2022-12-11T15:40:28;-0.80;99.90
12025;DHT22;6073;53.230;10.444;2022-12-11T15:42:54;-0.80;99.90
12025;DHT22;6073;53.230;10.444;2022-12-11T15:45:26;-0.80;99.90
12025;DHT22;6073;53.230;10.444;2022-12-11T15:47:53;-0.80;99.90
12025;DHT22;6073;53.230;10.444;2022-12-11T15:50:25;-0.70;99.90
12025;DHT22;6073;53.230;10.444;2022-12-11T15:52:53;-0.80;99.90
12025;DHT22;6073;53.230;10.444;2022-12-11T15:55:20;-0.80;99.90
12025;DHT22;6073;53.230;10.444;2022-12-11T15:58:00;-0.80;99.90
12025;DHT22;6073;53.230;10.444;2022-12-11T16:00:27;-0.80;99.90
12025;DHT22;6073;53.230;10.444;2022-12-11T16:02:53;-0.80;99.90
12025;DHT22;6073;53.230;10.444;2022-12-11T16:05:19;-0.80;99.90
12025;DHT22;6073;53.230;10.444;2022-12-11T16:07:46;-0.90;99.90
12025;DHT22;6073;53.230;10.444;2022-12-11T16:10:17;-0.90;99.90
12025;DHT22;6073;53.230;10.444;2022-12-11T16:12:44;-0.90;99.90
12025;DHT22;6073;53.230;10.444;2022-12-11T16:15:11;-0.90;99.90
12025;DHT22;6073;53.230;10.444;2022-12-11T16:17:38;-0.90;99.90
12025;DHT22;6073;53.230;10.444;2022-12-11T16:20:04;-0.90;99.90
12025;DHT22;6073;53.230;10.444;2022-12-11T16:22:30;-0.90;99.90
12025;DHT22;6073;53.230;10.444;2022-12-11T16:24:56;-0.90;99.90
12025;DHT22;6073;53.230;10.444;2022-12-11T16:27:22;-0.90;99.90
12025;DHT22;6073;53.230;10.444;2022-12-11T16:29:48;-0.90;99.90
12025;DHT22;6073;53.230;10.444;2022-12-11T16:35:28;-1.00;99.90
12025;DHT22;6073;53.230;10.444;2022-12-11T16:37:54;-0.90;99.90
12025;DHT22;6073;53.230;10.444;2022-12-11T16:40:20;-0.90;99.90
12025;DHT22;6073;53.230;10.444;2022-12-11T16:42:47;-0.90;99.90
12025;DHT22;6073;53.230;10.444;2022-12-11T16:45:16;-0.90;99.90
12025;DHT22;6073;53.230;10.444;2022-12-11T16:47:42;-0.80;99.90
12025;DHT22;6073;53.230;10.444;2022-12-11T16:50:09;-0.80;99.90
12025;DHT22;6073;53.230;10.444;2022-12-11T16:52:35;-0.80;99.90
12025;DHT22;6073;53.230;10.444;2022-12-11T16:55:00;-0.80;99.90
12025;DHT22;6073;53.230;10.444;2022-12-11T16:57:26;-0.80;99.90
12025;DHT22;6073;53.230;10.444;2022-12-11T16:59:55;-0.80;99.90
12025;DHT22;6073;53.230;10.444;2022-12-11T17:02:21;-0.80;99.90
12025;DHT22;6073;53.230;10.444;2022-12-11T17:04:46;-0.80;99.90
12025;DHT22;6073;53.230;10.444;2022-12-11T17:07:13;-0.90;99.90
12025;DHT22;6073;53.230;10.444;2022-12-11T17:09:40;-0.90;99.90
12025;DHT22;6073;53.230;10.444;2022-12-11T17:12:05;-0.90;99.90
12025;DHT22;6073;53.230;10.444;2022-12-11T17:14:31;-0.90;99.90